Hartland, Minnesota
Current Conditions -  °F | °C
As of 11:52 PM on Saturday 20 Dec 2014 (Local Time) from KAEL Reporting Station
Haze Haze  
Wind Chill: -5°   Ceiling: 200
Heat Index:   Visibility: 0.75mi
Dew Point:   Wind: 12mph
Humidity: 100%   Direction: 170°S
Pressure: 30.05"   Gusts: NA
Location:  43.8°N, 93.49°W
Report Text: KAEL 210552Z AUTO 17010KT 3/4SM BR OVC002 00/00 A3005 RMK AO2
Loading
Personal Weather Stations






























Interactive Weather Map New forecast layout! Learn more

10-Day Weather Forecast

Advertisements
Track Severe Weather on mobile